sensor_id;sensor_type;location;lat;lon;timestamp;temperature;humidity
44695;DHT22;32845;59.422;17.930;2023-05-28T00:02:17;11.80;99.90
44695;DHT22;32845;59.422;17.930;2023-05-28T00:06:48;11.70;99.90
44695;DHT22;32845;59.422;17.930;2023-05-28T00:11:23;11.70;99.90
44695;DHT22;32845;59.422;17.930;2023-05-28T00:15:54;11.60;99.90
44695;DHT22;32845;59.422;17.930;2023-05-28T00:20:25;11.50;99.90
44695;DHT22;32845;59.422;17.930;2023-05-28T00:24:56;11.50;99.90
44695;DHT22;32845;59.422;17.930;2023-05-28T00:29:26;11.50;99.90
44695;DHT22;32845;59.422;17.930;2023-05-28T00:33:57;11.50;99.90
44695;DHT22;32845;59.422;17.930;2023-05-28T00:38:27;11.50;99.90
44695;DHT22;32845;59.422;17.930;2023-05-28T00:42:58;11.60;99.90
44695;DHT22;32845;59.422;17.930;2023-05-28T00:47:29;11.60;99.90
44695;DHT22;32845;59.422;17.930;2023-05-28T00:52:00;11.50;99.90
44695;DHT22;32845;59.422;17.930;2023-05-28T00:56:32;11.40;99.90
44695;DHT22;32845;59.422;17.930;2023-05-28T01:01:03;11.40;99.90
44695;DHT22;32845;59.422;17.930;2023-05-28T01:05:33;11.30;99.90
44695;DHT22;32845;59.422;17.930;2023-05-28T01:10:05;11.30;99.90
44695;DHT22;32845;59.422;17.930;2023-05-28T01:14:36;11.30;99.90
44695;DHT22;32845;59.422;17.930;2023-05-28T01:19:08;11.20;99.90
44695;DHT22;32845;59.422;17.930;2023-05-28T01:23:46;11.30;99.90
44695;DHT22;32845;59.422;17.930;2023-05-28T01:28:17;11.30;99.90
44695;DHT22;32845;59.422;17.930;2023-05-28T01:32:48;11.30;99.90
44695;DHT22;32845;59.422;17.930;2023-05-28T01:37:19;11.30;99.90
44695;DHT22;32845;59.422;17.930;2023-05-28T01:41:50;11.30;99.90
44695;DHT22;32845;59.422;17.930;2023-05-28T01:46:22;11.30;99.90
44695;DHT22;32845;59.422;17.930;2023-05-28T01:50:53;11.30;99.90
44695;DHT22;32845;59.422;17.930;2023-05-28T01:55:25;11.40;99.90
44695;DHT22;32845;59.422;17.930;2023-05-28T01:59:55;11.40;99.90
44695;DHT22;32845;59.422;17.930;2023-05-28T02:04:26;11.40;99.90
44695;DHT22;32845;59.422;17.930;2023-05-28T02:08:57;11.50;99.90
44695;DHT22;32845;59.422;17.930;2023-05-28T02:13:27;11.60;99.90
44695;DHT22;32845;59.422;17.930;2023-05-28T02:17:58;11.60;99.90
44695;DHT22;32845;59.422;17.930;2023-05-28T02:22:29;11.60;99.90
44695;DHT22;32845;59.422;17.930;2023-05-28T02:26:59;11.70;99.90
44695;DHT22;32845;59.422;17.930;2023-05-28T02:31:30;11.70;99.90
44695;DHT22;32845;59.422;17.930;2023-05-28T02:36:01;11.70;99.90
44695;DHT22;32845;59.422;17.930;2023-05-28T02:40:31;11.70;99.90
44695;DHT22;32845;59.422;17.930;2023-05-28T02:45:02;11.80;99.90
44695;DHT22;32845;59.422;17.930;2023-05-28T02:49:34;11.80;99.90
44695;DHT22;32845;59.422;17.930;2023-05-28T02:54:05;11.80;99.90
44695;DHT22;32845;59.422;17.930;2023-05-28T02:58:35;11.80;99.90
44695;DHT22;32845;59.422;17.930;2023-05-28T03:03:06;11.80;99.90
44695;DHT22;32845;59.422;17.930;2023-05-28T03:07:37;11.80;99.90
44695;DHT22;32845;59.422;17.930;2023-05-28T03:12:08;11.80;99.90
44695;DHT22;32845;59.422;17.930;2023-05-28T03:16:38;11.80;99.90
44695;DHT22;32845;59.422;17.930;2023-05-28T03:21:09;11.80;99.90
44695;DHT22;32845;59.422;17.930;2023-05-28T03:25:39;11.90;99.90
44695;DHT22;32845;59.422;17.930;2023-05-28T03:30:10;11.90;99.90
44695;DHT22;32845;59.422;17.930;2023-05-28T03:34:41;11.90;99.90
44695;DHT22;32845;59.422;17.930;2023-05-28T03:39:12;11.90;99.90
44695;DHT22;32845;59.422;17.930;2023-05-28T03:43:42;12.00;99.90
44695;DHT22;32845;59.422;17.930;2023-05-28T03:48:13;12.00;99.90
44695;DHT22;32845;59.422;17.930;2023-05-28T03:52:43;12.00;99.90
44695;DHT22;32845;59.422;17.930;2023-05-28T03:57:14;12.00;99.90
44695;DHT22;32845;59.422;17.930;2023-05-28T04:01:45;12.00;99.90
44695;DHT22;32845;59.422;17.930;2023-05-28T04:06:15;12.00;99.90
44695;DHT22;32845;59.422;17.930;2023-05-28T04:10:46;12.00;99.90
44695;DHT22;32845;59.422;17.930;2023-05-28T04:15:17;12.00;99.90
44695;DHT22;32845;59.422;17.930;2023-05-28T04:19:48;12.10;99.90
44695;DHT22;32845;59.422;17.930;2023-05-28T04:24:21;12.10;99.90
44695;DHT22;32845;59.422;17.930;2023-05-28T04:28:52;12.10;99.90
44695;DHT22;32845;59.422;17.930;2023-05-28T04:33:23;12.00;99.90
44695;DHT22;32845;59.422;17.930;2023-05-28T04:37:54;12.10;99.90
44695;DHT22;32845;59.422;17.930;2023-05-28T04:42:25;12.10;99.90
44695;DHT22;32845;59.422;17.930;2023-05-28T04:46:55;12.10;99.90
44695;DHT22;32845;59.422;17.930;2023-05-28T04:51:29;12.10;99.90
44695;DHT22;32845;59.422;17.930;2023-05-28T04:56:00;12.10;99.90
44695;DHT22;32845;59.422;17.930;2023-05-28T05:00:31;12.10;99.90
44695;DHT22;32845;59.422;17.930;2023-05-28T05:05:01;12.10;99.90
44695;DHT22;32845;59.422;17.930;2023-05-28T05:09:32;12.10;99.90
44695;DHT22;32845;59.422;17.930;2023-05-28T05:14:02;12.00;99.90
44695;DHT22;32845;59.422;17.930;2023-05-28T05:18:34;12.10;99.90
44695;DHT22;32845;59.422;17.930;2023-05-28T05:23:04;12.00;99.90
44695;DHT22;32845;59.422;17.930;2023-05-28T05:27:35;12.00;99.90
44695;DHT22;32845;59.422;17.930;2023-05-28T05:32:08;12.00;99.90
44695;DHT22;32845;59.422;17.930;2023-05-28T05:36:39;12.00;99.90
44695;DHT22;32845;59.422;17.930;2023-05-28T05:41:10;12.10;99.90
44695;DHT22;32845;59.422;17.930;2023-05-28T05:45:40;12.00;99.90
44695;DHT22;32845;59.422;17.930;2023-05-28T05:50:11;12.10;99.90
44695;DHT22;32845;59.422;17.930;2023-05-28T05:54:43;12.10;99.90
44695;DHT22;32845;59.422;17.930;2023-05-28T05:59:13;12.10;99.90
44695;DHT22;32845;59.422;17.930;2023-05-28T06:03:44;12.10;99.90
44695;DHT22;32845;59.422;17.930;2023-05-28T06:08:14;12.10;99.90
44695;DHT22;32845;59.422;17.930;2023-05-28T06:12:45;12.20;99.90
44695;DHT22;32845;59.422;17.930;2023-05-28T06:17:16;12.20;99.90
44695;DHT22;32845;59.422;17.930;2023-05-28T06:21:46;12.20;99.90
44695;DHT22;32845;59.422;17.930;2023-05-28T06:26:17;12.20;99.90
44695;DHT22;32845;59.422;17.930;2023-05-28T06:30:48;12.30;99.90
44695;DHT22;32845;59.422;17.930;2023-05-28T06:35:19;12.30;99.90
44695;DHT22;32845;59.422;17.930;2023-05-28T06:39:50;12.30;99.90
44695;DHT22;32845;59.422;17.930;2023-05-28T06:44:20;12.30;99.90
44695;DHT22;32845;59.422;17.930;2023-05-28T06:48:51;12.30;99.90
44695;DHT22;32845;59.422;17.930;2023-05-28T06:53:22;12.40;99.90
44695;DHT22;32845;59.422;17.930;2023-05-28T06:57:52;12.40;99.90
44695;DHT22;32845;59.422;17.930;2023-05-28T07:02:23;12.40;99.90
44695;DHT22;32845;59.422;17.930;2023-05-28T07:06:53;12.50;99.90
44695;DHT22;32845;59.422;17.930;2023-05-28T07:11:24;12.60;99.90
44695;DHT22;32845;59.422;17.930;2023-05-28T07:15:56;12.70;99.90
44695;DHT22;32845;59.422;17.930;2023-05-28T07:20:27;12.80;99.90
44695;DHT22;32845;59.422;17.930;2023-05-28T07:24:58;12.90;99.90
44695;DHT22;32845;59.422;17.930;2023-05-28T07:29:29;13.20;99.90
44695;DHT22;32845;59.422;17.930;2023-05-28T07:33:59;13.30;99.90
44695;DHT22;32845;59.422;17.930;2023-05-28T07:38:30;13.50;99.90
44695;DHT22;32845;59.422;17.930;2023-05-28T07:43:01;13.70;99.90
44695;DHT22;32845;59.422;17.930;2023-05-28T07:47:31;13.90;99.90
44695;DHT22;32845;59.422;17.930;2023-05-28T07:52:02;14.00;99.90
44695;DHT22;32845;59.422;17.930;2023-05-28T07:56:33;14.20;99.90
44695;DHT22;32845;59.422;17.930;2023-05-28T08:01:04;14.30;99.90
44695;DHT22;32845;59.422;17.930;2023-05-28T08:05:39;14.40;99.90
44695;DHT22;32845;59.422;17.930;2023-05-28T08:10:10;14.50;99.90
44695;DHT22;32845;59.422;17.930;2023-05-28T08:14:40;14.60;99.90
44695;DHT22;32845;59.422;17.930;2023-05-28T08:19:11;14.60;99.90
44695;DHT22;32845;59.422;17.930;2023-05-28T08:23:42;14.70;99.90
44695;DHT22;32845;59.422;17.930;2023-05-28T08:28:12;14.80;99.90
44695;DHT22;32845;59.422;17.930;2023-05-28T08:32:44;14.90;99.90
44695;DHT22;32845;59.422;17.930;2023-05-28T08:37:14;15.10;99.90
44695;DHT22;32845;59.422;17.930;2023-05-28T08:41:45;15.30;99.90
44695;DHT22;32845;59.422;17.930;2023-05-28T08:46:16;15.50;99.90
44695;DHT22;32845;59.422;17.930;2023-05-28T08:50:49;15.50;99.90
44695;DHT22;32845;59.422;17.930;2023-05-28T08:55:21;15.60;99.90
44695;DHT22;32845;59.422;17.930;2023-05-28T08:59:53;15.70;99.90
44695;DHT22;32845;59.422;17.930;2023-05-28T09:04:23;15.90;99.90
44695;DHT22;32845;59.422;17.930;2023-05-28T09:08:55;16.00;99.90
44695;DHT22;32845;59.422;17.930;2023-05-28T09:13:26;16.00;99.90
44695;DHT22;32845;59.422;17.930;2023-05-28T09:17:58;16.10;99.90
44695;DHT22;32845;59.422;17.930;2023-05-28T09:22:29;16.10;99.90
44695;DHT22;32845;59.422;17.930;2023-05-28T09:27:00;16.00;99.90
44695;DHT22;32845;59.422;17.930;2023-05-28T09:31:31;16.00;99.90
44695;DHT22;32845;59.422;17.930;2023-05-28T09:36:03;16.20;99.90
44695;DHT22;32845;59.422;17.930;2023-05-28T09:40:39;16.30;99.90
44695;DHT22;32845;59.422;17.930;2023-05-28T09:45:11;16.50;99.90
44695;DHT22;32845;59.422;17.930;2023-05-28T09:49:43;16.60;99.90
44695;DHT22;32845;59.422;17.930;2023-05-28T09:54:17;16.80;99.90
44695;DHT22;32845;59.422;17.930;2023-05-28T09:58:51;17.00;99.90
44695;DHT22;32845;59.422;17.930;2023-05-28T10:03:48;17.10;99.90
44695;DHT22;32845;59.422;17.930;2023-05-28T10:08:23;17.10;99.90
44695;DHT22;32845;59.422;17.930;2023-05-28T10:12:56;17.00;99.90
44695;DHT22;32845;59.422;17.930;2023-05-28T10:17:27;17.10;99.90
44695;DHT22;32845;59.422;17.930;2023-05-28T10:21:59;17.40;99.90
44695;DHT22;32845;59.422;17.930;2023-05-28T10:26:30;17.50;99.90
44695;DHT22;32845;59.422;17.930;2023-05-28T10:31:01;17.60;99.90
44695;DHT22;32845;59.422;17.930;2023-05-28T10:35:53;17.50;99.90
44695;DHT22;32845;59.422;17.930;2023-05-28T10:40:24;17.30;99.30
44695;DHT22;32845;59.422;17.930;2023-05-28T10:49:57;16.90;99.90
44695;DHT22;32845;59.422;17.930;2023-05-28T10:59:15;17.10;98.80
44695;DHT22;32845;59.422;17.930;2023-05-28T11:03:52;17.30;99.90
44695;DHT22;32845;59.422;17.930;2023-05-28T11:08:22;17.40;99.60
44695;DHT22;32845;59.422;17.930;2023-05-28T11:12:53;17.50;99.10
44695;DHT22;32845;59.422;17.930;2023-05-28T11:17:24;17.80;98.30
44695;DHT22;32845;59.422;17.930;2023-05-28T11:21:55;18.20;99.10
44695;DHT22;32845;59.422;17.930;2023-05-28T11:26:28;18.70;96.90
44695;DHT22;32845;59.422;17.930;2023-05-28T11:30:59;18.90;94.50
44695;DHT22;32845;59.422;17.930;2023-05-28T11:35:30;19.20;96.00
44695;DHT22;32845;59.422;17.930;2023-05-28T11:40:02;19.20;94.30
44695;DHT22;32845;59.422;17.930;2023-05-28T11:44:35;19.10;93.60
44695;DHT22;32845;59.422;17.930;2023-05-28T11:49:06;19.30;93.70
44695;DHT22;32845;59.422;17.930;2023-05-28T11:53:41;19.80;93.00
44695;DHT22;32845;59.422;17.930;2023-05-28T11:58:12;20.10;92.20
44695;DHT22;32845;59.422;17.930;2023-05-28T12:02:47;20.50;90.50
44695;DHT22;32845;59.422;17.930;2023-05-28T12:07:18;20.70;90.10
44695;DHT22;32845;59.422;17.930;2023-05-28T12:12:11;20.70;88.80
44695;DHT22;32845;59.422;17.930;2023-05-28T12:16:46;21.40;85.60
44695;DHT22;32845;59.422;17.930;2023-05-28T12:21:18;22.50;83.90
44695;DHT22;32845;59.422;17.930;2023-05-28T12:25:51;23.40;81.10
44695;DHT22;32845;59.422;17.930;2023-05-28T12:30:22;23.70;75.70
44695;DHT22;32845;59.422;17.930;2023-05-28T12:34:53;23.40;73.80
44695;DHT22;32845;59.422;17.930;2023-05-28T12:39:26;22.90;74.90
44695;DHT22;32845;59.422;17.930;2023-05-28T12:43:57;22.50;74.20
44695;DHT22;32845;59.422;17.930;2023-05-28T12:48:28;22.10;73.70
44695;DHT22;32845;59.422;17.930;2023-05-28T12:52:58;21.60;75.20
44695;DHT22;32845;59.422;17.930;2023-05-28T12:57:29;21.10;75.20
44695;DHT22;32845;59.422;17.930;2023-05-28T13:01:59;20.50;75.90
44695;DHT22;32845;59.422;17.930;2023-05-28T13:06:30;20.20;77.90
44695;DHT22;32845;59.422;17.930;2023-05-28T13:11:01;20.00;79.10
44695;DHT22;32845;59.422;17.930;2023-05-28T13:15:31;19.90;80.10
44695;DHT22;32845;59.422;17.930;2023-05-28T13:20:02;19.90;79.90
44695;DHT22;32845;59.422;17.930;2023-05-28T13:24:37;20.10;81.50
44695;DHT22;32845;59.422;17.930;2023-05-28T13:29:08;20.20;81.60
44695;DHT22;32845;59.422;17.930;2023-05-28T13:33:38;20.20;80.70
44695;DHT22;32845;59.422;17.930;2023-05-28T13:38:09;20.10;81.00
44695;DHT22;32845;59.422;17.930;2023-05-28T13:42:40;20.10;80.50
44695;DHT22;32845;59.422;17.930;2023-05-28T13:47:11;20.10;79.80
44695;DHT22;32845;59.422;17.930;2023-05-28T13:51:42;20.10;80.10
44695;DHT22;32845;59.422;17.930;2023-05-28T13:56:14;20.20;80.80
44695;DHT22;32845;59.422;17.930;2023-05-28T14:00:45;20.20;81.20
44695;DHT22;32845;59.422;17.930;2023-05-28T14:05:16;20.20;81.30
44695;DHT22;32845;59.422;17.930;2023-05-28T14:09:46;20.10;81.10
44695;DHT22;32845;59.422;17.930;2023-05-28T14:14:17;20.10;81.30
44695;DHT22;32845;59.422;17.930;2023-05-28T14:18:47;20.10;81.10
44695;DHT22;32845;59.422;17.930;2023-05-28T14:23:18;20.00;80.40
44695;DHT22;32845;59.422;17.930;2023-05-28T14:27:49;19.80;78.20
44695;DHT22;32845;59.422;17.930;2023-05-28T14:32:20;19.50;79.60
44695;DHT22;32845;59.422;17.930;2023-05-28T14:36:50;19.50;78.60
44695;DHT22;32845;59.422;17.930;2023-05-28T14:41:26;19.30;80.60
44695;DHT22;32845;59.422;17.930;2023-05-28T14:45:57;19.30;80.70
44695;DHT22;32845;59.422;17.930;2023-05-28T14:50:30;19.40;81.60
44695;DHT22;32845;59.422;17.930;2023-05-28T14:55:01;19.40;80.20
44695;DHT22;32845;59.422;17.930;2023-05-28T14:59:32;19.30;80.00
44695;DHT22;32845;59.422;17.930;2023-05-28T15:04:02;19.20;79.30
44695;DHT22;32845;59.422;17.930;2023-05-28T15:08:33;19.10;77.80
44695;DHT22;32845;59.422;17.930;2023-05-28T15:13:04;19.00;79.80
44695;DHT22;32845;59.422;17.930;2023-05-28T15:17:35;18.90;80.00
44695;DHT22;32845;59.422;17.930;2023-05-28T15:22:05;18.80;80.40
44695;DHT22;32845;59.422;17.930;2023-05-28T15:26:36;18.70;80.50
44695;DHT22;32845;59.422;17.930;2023-05-28T15:31:07;18.70;79.80
44695;DHT22;32845;59.422;17.930;2023-05-28T15:35:38;18.60;79.90
44695;DHT22;32845;59.422;17.930;2023-05-28T15:40:09;18.50;79.30
44695;DHT22;32845;59.422;17.930;2023-05-28T15:44:39;18.40;79.20
44695;DHT22;32845;59.422;17.930;2023-05-28T15:49:10;18.30;79.00
44695;DHT22;32845;59.422;17.930;2023-05-28T15:53:41;18.30;79.80
44695;DHT22;32845;59.422;17.930;2023-05-28T15:58:12;18.20;78.70
44695;DHT22;32845;59.422;17.930;2023-05-28T16:02:43;18.20;79.30
44695;DHT22;32845;59.422;17.930;2023-05-28T16:07:15;18.20;79.80
44695;DHT22;32845;59.422;17.930;2023-05-28T16:11:49;18.20;79.60
44695;DHT22;32845;59.422;17.930;2023-05-28T16:16:22;18.30;80.00
44695;DHT22;32845;59.422;17.930;2023-05-28T16:20:53;18.30;79.60
44695;DHT22;32845;59.422;17.930;2023-05-28T16:25:23;18.30;79.70
44695;DHT22;32845;59.422;17.930;2023-05-28T16:29:55;18.30;79.10
44695;DHT22;32845;59.422;17.930;2023-05-28T16:34:27;18.30;78.90
44695;DHT22;32845;59.422;17.930;2023-05-28T16:38:57;18.20;77.80
44695;DHT22;32845;59.422;17.930;2023-05-28T16:43:29;18.20;78.10
44695;DHT22;32845;59.422;17.930;2023-05-28T16:48:00;18.10;77.70
44695;DHT22;32845;59.422;17.930;2023-05-28T16:52:30;18.00;76.20
44695;DHT22;32845;59.422;17.930;2023-05-28T16:57:01;18.00;78.70
44695;DHT22;32845;59.422;17.930;2023-05-28T17:01:35;17.90;78.70
44695;DHT22;32845;59.422;17.930;2023-05-28T17:06:06;17.90;78.40
44695;DHT22;32845;59.422;17.930;2023-05-28T17:10:37;17.90;78.20
44695;DHT22;32845;59.422;17.930;2023-05-28T17:15:08;17.80;78.50
44695;DHT22;32845;59.422;17.930;2023-05-28T17:19:38;17.80;78.00
44695;DHT22;32845;59.422;17.930;2023-05-28T17:24:09;17.70;76.70
44695;DHT22;32845;59.422;17.930;2023-05-28T17:28:40;17.70;77.90
44695;DHT22;32845;59.422;17.930;2023-05-28T17:33:11;17.70;78.60
44695;DHT22;32845;59.422;17.930;2023-05-28T17:37:41;17.70;78.40
44695;DHT22;32845;59.422;17.930;2023-05-28T17:42:12;17.70;78.00
44695;DHT22;32845;59.422;17.930;2023-05-28T17:46:42;17.60;79.90
44695;DHT22;32845;59.422;17.930;2023-05-28T17:51:15;17.50;79.30
44695;DHT22;32845;59.422;17.930;2023-05-28T17:55:45;17.50;78.60
44695;DHT22;32845;59.422;17.930;2023-05-28T18:00:16;17.40;79.30
44695;DHT22;32845;59.422;17.930;2023-05-28T18:04:46;17.30;80.10
44695;DHT22;32845;59.422;17.930;2023-05-28T18:09:17;17.10;80.80
44695;DHT22;32845;59.422;17.930;2023-05-28T18:13:49;16.90;81.90
44695;DHT22;32845;59.422;17.930;2023-05-28T18:18:21;16.70;82.90
44695;DHT22;32845;59.422;17.930;2023-05-28T18:22:51;16.50;83.30
44695;DHT22;32845;59.422;17.930;2023-05-28T18:27:22;16.30;84.40
44695;DHT22;32845;59.422;17.930;2023-05-28T18:31:53;16.10;84.80
44695;DHT22;32845;59.422;17.930;2023-05-28T18:36:23;15.90;85.90
44695;DHT22;32845;59.422;17.930;2023-05-28T18:40:59;15.80;86.80
44695;DHT22;32845;59.422;17.930;2023-05-28T18:45:30;15.70;87.40
44695;DHT22;32845;59.422;17.930;2023-05-28T18:50:04;15.60;88.30
44695;DHT22;32845;59.422;17.930;2023-05-28T18:54:35;15.50;88.80
44695;DHT22;32845;59.422;17.930;2023-05-28T18:59:08;15.40;89.00
44695;DHT22;32845;59.422;17.930;2023-05-28T19:03:38;15.40;87.10
44695;DHT22;32845;59.422;17.930;2023-05-28T19:08:09;15.40;87.00
44695;DHT22;32845;59.422;17.930;2023-05-28T19:12:40;15.50;87.10
44695;DHT22;32845;59.422;17.930;2023-05-28T19:17:11;15.50;87.40
44695;DHT22;32845;59.422;17.930;2023-05-28T19:21:42;15.40;87.30
44695;DHT22;32845;59.422;17.930;2023-05-28T19:26:13;15.40;86.90
44695;DHT22;32845;59.422;17.930;2023-05-28T19:30:44;15.30;86.70
44695;DHT22;32845;59.422;17.930;2023-05-28T19:35:15;15.20;86.80
44695;DHT22;32845;59.422;17.930;2023-05-28T19:39:46;15.10;86.90
44695;DHT22;32845;59.422;17.930;2023-05-28T19:44:16;15.10;87.20
44695;DHT22;32845;59.422;17.930;2023-05-28T19:48:47;15.10;87.90
44695;DHT22;32845;59.422;17.930;2023-05-28T19:53:19;15.00;88.10
44695;DHT22;32845;59.422;17.930;2023-05-28T19:57:50;15.00;88.40
44695;DHT22;32845;59.422;17.930;2023-05-28T20:02:20;14.90;88.60
44695;DHT22;32845;59.422;17.930;2023-05-28T20:06:56;14.80;88.90
44695;DHT22;32845;59.422;17.930;2023-05-28T20:11:27;14.80;89.40
44695;DHT22;32845;59.422;17.930;2023-05-28T20:15:58;14.70;90.00
44695;DHT22;32845;59.422;17.930;2023-05-28T20:20:28;14.70;90.00
44695;DHT22;32845;59.422;17.930;2023-05-28T20:24:59;14.60;90.10
44695;DHT22;32845;59.422;17.930;2023-05-28T20:29:34;14.50;90.10
44695;DHT22;32845;59.422;17.930;2023-05-28T20:34:05;14.50;90.20
44695;DHT22;32845;59.422;17.930;2023-05-28T20:38:36;14.40;90.40
44695;DHT22;32845;59.422;17.930;2023-05-28T20:43:08;14.30;90.60
44695;DHT22;32845;59.422;17.930;2023-05-28T20:47:39;14.20;90.60
44695;DHT22;32845;59.422;17.930;2023-05-28T20:52:10;14.10;90.80
44695;DHT22;32845;59.422;17.930;2023-05-28T20:56:41;14.10;90.90
44695;DHT22;32845;59.422;17.930;2023-05-28T21:01:12;14.00;91.10
44695;DHT22;32845;59.422;17.930;2023-05-28T21:05:43;14.00;91.20
44695;DHT22;32845;59.422;17.930;2023-05-28T21:10:14;14.00;91.30
44695;DHT22;32845;59.422;17.930;2023-05-28T21:14:44;13.90;91.50
44695;DHT22;32845;59.422;17.930;2023-05-28T21:19:15;13.90;91.60
44695;DHT22;32845;59.422;17.930;2023-05-28T21:23:46;13.80;91.80
44695;DHT22;32845;59.422;17.930;2023-05-28T21:28:16;13.70;91.80
44695;DHT22;32845;59.422;17.930;2023-05-28T21:32:47;13.60;92.00
44695;DHT22;32845;59.422;17.930;2023-05-28T21:37:17;13.50;92.30
44695;DHT22;32845;59.422;17.930;2023-05-28T21:41:48;13.40;92.50
44695;DHT22;32845;59.422;17.930;2023-05-28T21:46:19;13.30;92.80
44695;DHT22;32845;59.422;17.930;2023-05-28T21:50:49;13.20;93.00
44695;DHT22;32845;59.422;17.930;2023-05-28T21:55:20;13.10;93.30
44695;DHT22;32845;59.422;17.930;2023-05-28T21:59:50;13.00;93.50
44695;DHT22;32845;59.422;17.930;2023-05-28T22:04:21;12.90;93.80
44695;DHT22;32845;59.422;17.930;2023-05-28T22:08:51;12.80;94.00
44695;DHT22;32845;59.422;17.930;2023-05-28T22:13:22;12.70;94.50
44695;DHT22;32845;59.422;17.930;2023-05-28T22:17:55;12.60;94.60
44695;DHT22;32845;59.422;17.930;2023-05-28T22:22:26;12.50;95.00
44695;DHT22;32845;59.422;17.930;2023-05-28T22:26:57;12.40;95.20
44695;DHT22;32845;59.422;17.930;2023-05-28T22:31:28;12.30;95.50
44695;DHT22;32845;59.422;17.930;2023-05-28T22:35:59;12.20;96.00
44695;DHT22;32845;59.422;17.930;2023-05-28T22:40:29;12.10;96.40
44695;DHT22;32845;59.422;17.930;2023-05-28T22:45:03;12.00;96.70
44695;DHT22;32845;59.422;17.930;2023-05-28T22:49:34;12.00;97.10
44695;DHT22;32845;59.422;17.930;2023-05-28T22:54:04;11.90;97.60
44695;DHT22;32845;59.422;17.930;2023-05-28T22:58:39;11.90;98.30
44695;DHT22;32845;59.422;17.930;2023-05-28T23:03:10;11.80;98.80
44695;DHT22;32845;59.422;17.930;2023-05-28T23:07:41;11.80;99.50
44695;DHT22;32845;59.422;17.930;2023-05-28T23:12:12;11.80;99.90
44695;DHT22;32845;59.422;17.930;2023-05-28T23:16:45;11.80;99.90
44695;DHT22;32845;59.422;17.930;2023-05-28T23:21:16;11.80;99.90
44695;DHT22;32845;59.422;17.930;2023-05-28T23:25:47;11.80;99.90
44695;DHT22;32845;59.422;17.930;2023-05-28T23:30:18;11.80;99.90
44695;DHT22;32845;59.422;17.930;2023-05-28T23:34:49;11.80;99.90
44695;DHT22;32845;59.422;17.930;2023-05-28T23:39:19;11.80;99.90
44695;DHT22;32845;59.422;17.930;2023-05-28T23:43:52;11.80;99.90
44695;DHT22;32845;59.422;17.930;2023-05-28T23:48:23;11.80;99.90
44695;DHT22;32845;59.422;17.930;2023-05-28T23:52:54;11.80;99.90
44695;DHT22;32845;59.422;17.930;2023-05-28T23:57:24;11.90;99.90
